Time;durP1;ratioP1;P1;durP2;ratioP2;P2;SDS_P1;SDS_P2;PMS_P1;PMS_P2;Temp;Humidity;BMP_temperature;BMP_pressure;BME280_temperature;BME280_humidity;BME280_pressure;Samples;Min_cycle;Max_cycle;Signal;HPM_P1;HPM_P2
2023/03/13 00:00:45;;;;;;;20.50;19.00;;;;;;;13.35;59.34;100139.47;5073218;28;20028;-72
2023/03/13 00:03:11;;;;;;;20.98;19.15;;;;;;;13.34;59.42;100133.22;5087903;28;20490;-72
2023/03/13 00:05:36;;;;;;;20.67;19.42;;;;;;;13.34;59.57;100130.50;5075126;28;20080;-72
2023/03/13 00:08:02;;;;;;;22.42;20.70;;;;;;;13.34;59.59;100121.56;5074944;28;20037;-72
2023/03/13 00:10:27;;;;;;;20.38;18.63;;;;;;;13.34;59.65;100124.28;5075355;28;20445;-72
2023/03/13 00:12:52;;;;;;;21.42;19.88;;;;;;;13.34;59.55;100114.25;5082110;28;20036;-72
2023/03/13 00:15:18;;;;;;;21.08;19.55;;;;;;;13.34;59.30;100113.44;5074617;28;20047;-71
2023/03/13 00:17:43;;;;;;;22.92;21.05;;;;;;;13.35;59.41;100109.63;5074963;28;20043;-72
2023/03/13 00:20:09;;;;;;;22.13;20.08;;;;;;;13.33;59.25;100104.50;5074487;28;20098;-72
2023/03/13 00:22:34;;;;;;;20.10;18.48;;;;;;;13.33;59.58;100090.94;5084263;28;20043;-73
2023/03/13 00:25:00;;;;;;;21.55;20.25;;;;;;;13.33;59.43;100088.22;5090979;28;20032;-73
2023/03/13 00:27:25;;;;;;;18.90;17.90;;;;;;;13.34;59.45;100075.47;5078617;28;20465;-72
2023/03/13 00:29:50;;;;;;;20.60;19.30;;;;;;;13.34;59.73;100070.84;5074168;28;20064;-72
2023/03/13 00:32:16;;;;;;;19.75;18.35;;;;;;;13.34;59.58;100056.47;5075011;28;20037;-72
2023/03/13 00:34:41;;;;;;;21.52;20.13;;;;;;;13.33;59.65;100050.25;5099518;28;20059;-72
2023/03/13 00:37:07;;;;;;;22.00;19.88;;;;;;;13.32;59.60;100043.19;5105823;28;20527;-72
2023/03/13 00:39:32;;;;;;;20.27;18.95;;;;;;;13.34;59.42;100041.00;5093056;28;20040;-72
2023/03/13 00:41:57;;;;;;;23.27;20.83;;;;;;;13.34;59.93;100029.34;5093282;28;20391;-72
2023/03/13 00:44:23;;;;;;;20.65;19.35;;;;;;;13.34;59.42;100032.88;5094625;28;20028;-71
2023/03/13 00:46:48;;;;;;;20.23;19.05;;;;;;;13.34;59.49;100021.22;5114597;28;20388;-72
2023/03/13 00:49:14;;;;;;;20.08;18.58;;;;;;;13.34;59.32;100016.59;5093775;28;20067;-72
2023/03/13 00:51:39;;;;;;;20.63;19.52;;;;;;;13.34;59.71;100016.59;5109852;28;20089;-72
2023/03/13 00:54:04;;;;;;;22.65;20.50;;;;;;;13.34;59.27;100010.34;5094616;28;20477;-71
2023/03/13 00:56:30;;;;;;;20.90;19.35;;;;;;;13.33;59.53;99996.00;5098450;28;20071;-72
2023/03/13 00:58:55;;;;;;;20.40;19.08;;;;;;;13.33;59.63;99993.28;5073595;28;20045;-72
2023/03/13 01:01:22;;;;;;;19.80;18.70;;;;;;;13.34;59.72;100002.22;5074059;28;20036;-71
2023/03/13 01:04:03;;;;;;;19.73;18.73;;;;;;;13.33;59.45;99984.31;5074399;28;20077;-73
2023/03/13 01:06:31;;;;;;;20.15;18.92;;;;;;;13.33;59.51;99971.59;5089823;28;20036;-72
2023/03/13 01:08:56;;;;;;;19.90;18.83;;;;;;;13.33;59.61;99974.28;5074863;28;20162;-73
2023/03/13 01:11:24;;;;;;;19.02;17.98;;;;;;;13.33;59.57;99966.16;5074168;28;20041;-71
2023/03/13 01:13:54;;;;;;;21.60;19.88;;;;;;;13.34;59.51;99967.75;5073802;28;20037;-72
2023/03/13 01:16:20;;;;;;;20.63;19.20;;;;;;;13.35;59.36;99968.56;5100265;28;20379;-72
2023/03/13 01:18:49;;;;;;;19.52;18.42;;;;;;;13.33;59.74;99952.59;5074752;28;20024;-73
2023/03/13 01:21:15;;;;;;;18.98;17.77;;;;;;;13.34;59.66;99951.50;5073306;28;20121;-73
2023/03/13 01:23:41;;;;;;;20.05;18.95;;;;;;;13.34;59.67;99945.25;5073636;28;20067;-72
2023/03/13 01:26:07;;;;;;;20.77;19.02;;;;;;;13.34;59.73;99948.78;5087557;28;20172;-73
2023/03/13 01:28:34;;;;;;;19.25;18.25;;;;;;;13.32;59.60;99934.69;5106258;28;20036;-72
2023/03/13 01:31:00;;;;;;;19.95;18.77;;;;;;;13.34;59.65;99934.41;5091110;28;20036;-73
2023/03/13 01:33:25;;;;;;;19.70;18.40;;;;;;;13.33;59.82;99927.34;5093801;28;20031;-73
2023/03/13 01:35:51;;;;;;;20.08;18.92;;;;;;;13.32;59.80;99929.25;5092478;28;20491;-72
2023/03/13 01:38:16;;;;;;;18.63;17.58;;;;;;;13.32;59.94;99929.25;5075420;28;20035;-72
2023/03/13 01:40:48;;;;;;;19.45;18.25;;;;;;;13.34;60.00;99912.72;5074481;28;20033;-72
2023/03/13 01:43:19;;;;;;;21.23;19.52;;;;;;;13.34;59.94;99910.00;5072910;28;20043;-72
2023/03/13 01:46:03;;;;;;;19.05;18.05;;;;;;;13.33;60.10;99897.50;5073274;28;20040;-72
2023/03/13 01:48:47;;;;;;;19.98;18.60;;;;;;;13.31;60.05;99892.38;5094429;28;20163;-71
2023/03/13 01:51:34;;;;;;;20.77;19.60;;;;;;;13.30;60.17;99889.94;5083925;28;20153;-72
2023/03/13 01:54:03;;;;;;;19.38;18.25;;;;;;;13.30;60.07;99877.19;5072755;28;20032;-71
2023/03/13 01:56:39;;;;;;;20.15;19.05;;;;;;;13.31;60.17;99869.88;5072890;28;20036;-72
2023/03/13 01:59:08;;;;;;;22.67;21.17;;;;;;;13.33;60.43;99870.38;5085525;28;20040;-73
2023/03/13 02:01:34;;;;;;;19.27;18.08;;;;;;;13.33;60.11;99854.94;5077939;28;20526;-72
2023/03/13 02:04:00;;;;;;;19.85;18.67;;;;;;;13.32;60.49;99849.78;5122029;27;20036;-71
2023/03/13 02:06:29;;;;;;;21.13;19.92;;;;;;;13.34;60.37;99847.63;5072531;28;20052;-72
2023/03/13 02:09:01;;;;;;;19.35;18.27;;;;;;;13.34;60.56;99843.00;5088545;28;20040;-72
2023/03/13 02:11:38;;;;;;;18.67;17.67;;;;;;;13.33;60.61;99821.56;5077442;28;20039;-72
2023/03/13 02:14:04;;;;;;;22.80;21.30;;;;;;;13.31;60.52;99812.94;5087253;28;20032;-72
2023/03/13 02:16:32;;;;;;;19.48;18.38;;;;;;;13.33;60.47;99803.41;5072860;28;20027;-71
2023/03/13 02:18:58;;;;;;;17.50;16.60;;;;;;;13.34;60.32;99807.72;5085474;28;20024;-71
2023/03/13 02:21:43;;;;;;;18.73;17.60;;;;;;;13.34;60.47;99791.47;5085099;28;22207;-72
2023/03/13 02:24:34;;;;;;;20.38;19.10;;;;;;;13.35;60.59;99798.50;5071722;28;20404;-71
2023/03/13 02:26:59;;;;;;;19.48;18.23;;;;;;;13.35;60.25;99812.06;5072081;28;20029;-71
2023/03/13 02:29:25;;;;;;;20.98;19.58;;;;;;;13.35;60.71;99801.19;5089386;28;20040;-71
2023/03/13 02:31:51;;;;;;;21.63;20.23;;;;;;;13.38;60.94;99808.81;5072478;28;20032;-71
2023/03/13 02:34:23;;;;;;;21.52;19.98;;;;;;;13.39;60.58;99796.84;5123244;27;20491;-71
2023/03/13 02:36:49;;;;;;;20.40;19.20;;;;;;;13.41;60.46;99802.00;5072556;28;20025;-72
2023/03/13 02:39:17;;;;;;;19.95;18.80;;;;;;;13.40;60.83;99793.03;5076625;28;20484;-72
2023/03/13 02:41:44;;;;;;;20.65;19.13;;;;;;;13.40;60.72;99798.44;5076080;28;20039;-71
2023/03/13 02:44:10;;;;;;;20.90;19.63;;;;;;;13.41;61.13;99786.53;5087711;28;20047;-71
2023/03/13 02:46:49;;;;;;;20.05;18.98;;;;;;;13.42;60.82;99780.00;5072395;28;20033;-71
2023/03/13 02:49:32;;;;;;;21.15;19.88;;;;;;;13.39;61.15;99779.75;5072021;28;20560;-71
2023/03/13 02:52:19;;;;;;;21.23;20.02;;;;;;;13.39;61.32;99771.63;5072146;28;20150;-72
2023/03/13 02:54:49;;;;;;;18.95;17.95;;;;;;;13.44;61.00;99781.63;5071816;28;20032;-71
2023/03/13 02:57:14;;;;;;;21.55;20.25;;;;;;;13.45;61.08;99784.03;5086239;28;20048;-72
2023/03/13 02:59:40;;;;;;;22.33;20.98;;;;;;;13.44;61.06;99787.06;5084866;28;20044;-72
2023/03/13 03:02:05;;;;;;;21.40;19.88;;;;;;;13.46;61.20;99780.25;5103717;28;20032;-72
2023/03/13 03:04:31;;;;;;;20.38;19.23;;;;;;;13.48;61.04;99785.38;5071403;28;20032;-71
2023/03/13 03:06:56;;;;;;;20.15;18.95;;;;;;;13.49;61.25;99779.66;5079731;28;20032;-72
2023/03/13 03:09:22;;;;;;;21.00;19.70;;;;;;;13.51;61.23;99790.25;5100175;28;20082;-72
2023/03/13 03:11:48;;;;;;;21.83;20.63;;;;;;;13.52;60.96;99779.09;5090111;28;20457;-71
2023/03/13 03:14:14;;;;;;;22.23;21.00;;;;;;;13.54;61.09;99776.91;5071428;28;20496;-71
2023/03/13 03:16:39;;;;;;;19.95;18.75;;;;;;;13.55;61.05;99778.50;5074634;28;20122;-71
2023/03/13 03:19:05;;;;;;;20.75;19.63;;;;;;;13.54;60.98;99768.78;5071462;28;20453;-72
2023/03/13 03:21:32;;;;;;;20.70;19.25;;;;;;;13.57;61.06;99767.38;5094113;28;20483;-71
2023/03/13 03:23:57;;;;;;;20.73;19.52;;;;;;;13.58;61.31;99764.41;5093518;28;20383;-71
2023/03/13 03:26:23;;;;;;;21.88;20.58;;;;;;;13.60;60.84;99764.09;5094124;28;20020;-72
2023/03/13 03:28:48;;;;;;;21.08;19.63;;;;;;;13.62;61.19;99770.84;5071787;28;20028;-71
2023/03/13 03:31:15;;;;;;;19.70;18.60;;;;;;;13.61;60.98;99766.53;5091492;28;20039;-72
2023/03/13 03:33:41;;;;;;;21.00;19.80;;;;;;;13.60;61.30;99764.91;5104104;28;20035;-71
2023/03/13 03:36:13;;;;;;;21.27;19.88;;;;;;;13.63;61.33;99772.50;5078492;28;20111;-72
2023/03/13 03:38:39;;;;;;;21.35;20.25;;;;;;;13.63;61.62;99769.78;5097863;28;20028;-71
2023/03/13 03:41:05;;;;;;;21.00;19.63;;;;;;;13.67;61.61;99766.47;5086152;28;20490;-71
2023/03/13 03:43:31;;;;;;;21.08;19.92;;;;;;;13.68;61.64;99776.22;5075338;28;20215;-72
2023/03/13 03:45:56;;;;;;;20.83;19.65;;;;;;;13.66;61.29;99776.53;5075650;28;20029;-71
2023/03/13 03:48:22;;;;;;;22.23;20.98;;;;;;;13.71;61.40;99773.78;5075229;28;20033;-71
2023/03/13 03:50:47;;;;;;;21.92;20.52;;;;;;;13.72;61.52;99761.81;5112008;27;20447;-71
2023/03/13 03:53:13;;;;;;;21.40;20.10;;;;;;;13.73;61.61;99771.56;5103549;28;20059;-71
2023/03/13 03:55:38;;;;;;;21.48;20.38;;;;;;;13.73;61.69;99759.88;5075174;28;20059;-72
2023/03/13 03:58:03;;;;;;;22.20;21.00;;;;;;;13.74;61.75;99762.34;5094246;28;20486;-72
2023/03/13 04:00:29;;;;;;;20.80;19.70;;;;;;;13.78;61.42;99763.38;5093213;28;20118;-71
2023/03/13 04:02:57;;;;;;;21.23;19.83;;;;;;;13.76;61.59;99748.47;5092732;28;20044;-72
2023/03/13 04:05:23;;;;;;;22.40;21.00;;;;;;;13.78;61.75;99752.53;5074348;28;20053;-72
2023/03/13 04:07:48;;;;;;;22.10;20.50;;;;;;;13.81;61.54;99762.81;5075491;28;20473;-72
2023/03/13 04:10:14;;;;;;;22.95;21.45;;;;;;;13.83;61.73;99735.34;5074725;28;20036;-72
2023/03/13 04:12:40;;;;;;;20.75;19.10;;;;;;;13.86;61.62;99729.38;5118937;27;20381;-71
2023/03/13 04:15:07;;;;;;;21.48;20.27;;;;;;;13.87;61.97;99732.88;5074819;28;20081;-72
2023/03/13 04:17:32;;;;;;;21.60;20.42;;;;;;;13.87;61.65;99719.31;5074167;28;20039;-72
2023/03/13 04:19:58;;;;;;;21.42;20.20;;;;;;;13.91;61.58;99721.16;5075099;28;20032;-72
2023/03/13 04:22:23;;;;;;;23.02;21.48;;;;;;;13.95;61.17;99721.38;5080766;28;20103;-72
2023/03/13 04:24:49;;;;;;;21.85;20.55;;;;;;;13.94;61.67;99723.28;5085346;28;20058;-72
2023/03/13 04:27:14;;;;;;;21.85;20.58;;;;;;;13.94;61.69;99709.72;5074473;28;20342;-72
2023/03/13 04:29:40;;;;;;;23.35;22.10;;;;;;;13.96;61.53;99704.81;5074708;28;20107;-72
2023/03/13 04:32:05;;;;;;;22.55;21.25;;;;;;;13.99;61.78;99706.13;5076292;28;20469;-71
2023/03/13 04:34:31;;;;;;;20.55;19.45;;;;;;;14.00;61.56;99707.75;5092790;28;20047;-72
2023/03/13 04:36:56;;;;;;;21.95;20.75;;;;;;;14.01;61.59;99706.63;5074907;28;20036;-72
2023/03/13 04:39:25;;;;;;;22.48;21.17;;;;;;;14.02;61.40;99700.13;5074415;28;20032;-72
2023/03/13 04:41:51;;;;;;;23.17;21.45;;;;;;;14.03;61.77;99701.72;5074616;28;20082;-72
2023/03/13 04:44:17;;;;;;;23.23;21.95;;;;;;;14.01;61.62;99704.75;5107214;27;20024;-71
2023/03/13 04:46:42;;;;;;;23.80;22.48;;;;;;;14.04;61.71;99700.66;5101698;28;20051;-72
2023/03/13 04:49:07;;;;;;;21.92;20.73;;;;;;;14.07;61.59;99705.47;5091328;28;20115;-72
2023/03/13 04:51:33;;;;;;;23.13;21.83;;;;;;;14.08;61.87;99682.66;5094123;28;20035;-72
2023/03/13 04:53:58;;;;;;;22.30;21.10;;;;;;;14.10;61.62;99685.88;5094262;28;20108;-72
2023/03/13 04:56:26;;;;;;;24.35;22.63;;;;;;;14.10;61.84;99679.66;5096509;28;20036;-71
2023/03/13 04:58:51;;;;;;;21.95;20.75;;;;;;;14.11;61.88;99671.22;5077541;28;20085;-71
2023/03/13 05:01:17;;;;;;;21.27;20.15;;;;;;;14.11;61.75;99682.09;5089350;28;20036;-72
2023/03/13 05:03:42;;;;;;;22.05;20.73;;;;;;;14.13;61.84;99665.47;5074138;28;20390;-72
2023/03/13 05:06:07;;;;;;;21.40;20.35;;;;;;;14.17;61.55;99678.19;5092072;28;20036;-72
2023/03/13 05:08:35;;;;;;;22.10;20.52;;;;;;;14.17;62.09;99663.81;5099776;28;20036;-71
2023/03/13 05:11:00;;;;;;;23.02;21.77;;;;;;;14.20;61.89;99674.88;5108992;28;20476;-71
2023/03/13 05:13:26;;;;;;;23.27;21.98;;;;;;;14.22;61.58;99671.88;5093452;28;20035;-71
2023/03/13 05:15:51;;;;;;;22.45;21.25;;;;;;;14.23;62.04;99654.47;5102188;28;20107;-72
2023/03/13 05:18:17;;;;;;;23.15;21.95;;;;;;;14.23;62.17;99657.19;5095774;28;20039;-72
2023/03/13 05:20:42;;;;;;;21.77;20.45;;;;;;;14.23;62.16;99659.91;5098616;28;20396;-72
2023/03/13 05:23:07;;;;;;;24.35;22.85;;;;;;;14.24;62.04;99659.63;5093592;28;20116;-72
2023/03/13 05:25:33;;;;;;;23.40;21.73;;;;;;;14.28;61.97;99668.78;5093585;28;20040;-73
2023/03/13 05:27:58;;;;;;;21.45;20.27;;;;;;;14.26;62.09;99660.16;5093008;28;20032;-72
2023/03/13 05:30:23;;;;;;;23.10;21.70;;;;;;;14.27;62.37;99658.22;5093753;28;20056;-72
2023/03/13 05:32:49;;;;;;;23.35;22.05;;;;;;;14.31;62.14;99647.56;5072409;28;20461;-72
2023/03/13 05:35:14;;;;;;;21.55;20.42;;;;;;;14.34;62.08;99657.84;5073677;28;20045;-72
2023/03/13 05:37:40;;;;;;;22.13;20.90;;;;;;;14.34;62.19;99649.69;5087434;28;20418;-72
2023/03/13 05:40:06;;;;;;;22.55;21.25;;;;;;;14.35;62.09;99656.75;5087778;28;20040;-72
2023/03/13 05:42:31;;;;;;;25.27;23.67;;;;;;;14.37;61.87;99649.13;5092346;28;20027;-73
2023/03/13 05:44:56;;;;;;;23.58;22.20;;;;;;;14.38;61.89;99648.00;5100899;28;20032;-72
2023/03/13 05:47:22;;;;;;;22.55;21.35;;;;;;;14.40;61.76;99654.78;5083150;28;20077;-72
2023/03/13 05:49:47;;;;;;;22.70;21.50;;;;;;;14.43;62.10;99666.97;5106943;27;20365;-72
2023/03/13 05:52:12;;;;;;;23.00;21.52;;;;;;;14.40;61.95;99656.69;5083775;28;20079;-72
2023/03/13 05:54:38;;;;;;;23.02;21.52;;;;;;;14.43;61.65;99658.81;5079002;28;20037;-72
2023/03/13 05:57:03;;;;;;;24.05;22.85;;;;;;;14.45;61.82;99664.75;5073093;28;20385;-72
2023/03/13 05:59:29;;;;;;;25.55;24.00;;;;;;;14.48;61.81;99658.72;5072632;28;20032;-72
2023/03/13 06:01:54;;;;;;;21.70;20.50;;;;;;;14.45;61.91;99656.59;5109585;27;20039;-72
2023/03/13 06:04:19;;;;;;;22.35;21.23;;;;;;;14.47;61.80;99657.13;5099072;28;20040;-72
2023/03/13 06:06:45;;;;;;;22.52;21.23;;;;;;;14.47;61.98;99644.34;5096980;28;20114;-72
2023/03/13 06:09:11;;;;;;;24.08;22.65;;;;;;;14.47;61.88;99649.78;5092560;28;20036;-72
2023/03/13 06:11:36;;;;;;;23.50;22.08;;;;;;;14.48;62.17;99639.72;5092280;28;20040;-73
2023/03/13 06:14:02;;;;;;;24.52;22.98;;;;;;;14.53;61.94;99636.09;5087990;28;20121;-72
2023/03/13 06:16:27;;;;;;;25.38;23.98;;;;;;;14.49;62.13;99639.44;5095650;28;20050;-72
2023/03/13 06:18:53;;;;;;;22.10;20.70;;;;;;;14.52;62.25;99639.94;5072752;28;20055;-72
2023/03/13 06:21:18;;;;;;;22.67;21.17;;;;;;;14.53;62.07;99644.25;5072517;28;20029;-72
2023/03/13 06:23:44;;;;;;;23.73;22.42;;;;;;;14.58;61.72;99642.28;5083509;28;20033;-71
2023/03/13 06:26:10;;;;;;;24.83;23.30;;;;;;;14.57;61.72;99634.47;5083743;28;20459;-72
2023/03/13 06:28:35;;;;;;;23.27;21.70;;;;;;;14.58;62.11;99647.72;5088160;28;20105;-72
2023/03/13 06:31:02;;;;;;;22.17;20.98;;;;;;;14.61;61.85;99638.97;5077315;28;20028;-73
2023/03/13 06:33:28;;;;;;;23.45;22.17;;;;;;;14.60;61.70;99650.97;5083312;28;20107;-71
2023/03/13 06:35:53;;;;;;;23.27;22.00;;;;;;;14.66;61.44;99640.81;5108830;27;20123;-72
2023/03/13 06:38:18;;;;;;;23.60;22.20;;;;;;;14.63;61.97;99627.81;5092157;28;20481;-72
2023/03/13 06:40:44;;;;;;;22.40;21.20;;;;;;;14.65;61.60;99637.28;5091713;28;20068;-72
2023/03/13 06:43:09;;;;;;;21.88;20.77;;;;;;;14.67;61.87;99643.25;5092652;28;20036;-72
2023/03/13 06:45:35;;;;;;;24.10;22.63;;;;;;;14.67;62.01;99645.16;5090848;28;20555;-72
2023/03/13 06:48:01;;;;;;;22.80;21.45;;;;;;;14.66;61.86;99636.19;5089414;28;20032;-72
2023/03/13 06:50:27;;;;;;;21.15;20.05;;;;;;;14.69;61.88;99634.78;5071604;28;20396;-72
2023/03/13 06:52:52;;;;;;;21.40;20.27;;;;;;;14.69;61.78;99637.50;5104508;28;20032;-72
2023/03/13 06:55:17;;;;;;;22.15;20.95;;;;;;;14.70;61.93;99634.50;5110525;27;20186;-72
2023/03/13 06:57:43;;;;;;;23.42;21.75;;;;;;;14.73;61.82;99632.28;5097057;28;20044;-71
2023/03/13 07:00:10;;;;;;;23.83;21.95;;;;;;;14.73;61.81;99627.66;5090977;28;20047;-72
2023/03/13 07:02:36;;;;;;;23.75;22.35;;;;;;;14.75;61.79;99633.59;5071872;28;20046;-73
2023/03/13 07:05:04;;;;;;;22.17;21.00;;;;;;;14.73;62.02;99643.16;5087823;28;20056;-72
2023/03/13 07:07:31;;;;;;;23.50;21.92;;;;;;;14.73;61.89;99624.94;5095165;28;20035;-72
2023/03/13 07:09:57;;;;;;;21.58;20.48;;;;;;;14.76;61.65;99618.91;5090612;28;20487;-72
2023/03/13 07:12:23;;;;;;;21.55;20.35;;;;;;;14.76;61.78;99631.69;5091096;28;20032;-72
2023/03/13 07:14:48;;;;;;;21.67;20.52;;;;;;;14.74;61.62;99612.97;5091076;28;20529;-72
2023/03/13 07:17:13;;;;;;;22.25;21.00;;;;;;;14.74;61.82;99615.69;5078202;28;20464;-72
2023/03/13 07:19:39;;;;;;;23.95;22.52;;;;;;;14.70;61.84;99629.06;5091214;28;20075;-72
2023/03/13 07:22:04;;;;;;;22.20;21.10;;;;;;;14.73;62.20;99627.66;5108618;27;20484;-71
2023/03/13 07:24:30;;;;;;;23.92;22.25;;;;;;;14.70;62.15;99617.38;5075017;28;20024;-71
2023/03/13 07:26:56;;;;;;;21.98;20.88;;;;;;;14.74;62.26;99620.31;5097661;28;20041;-73
2023/03/13 07:29:21;;;;;;;23.67;22.48;;;;;;;14.78;62.00;99634.91;5071592;28;20464;-72
2023/03/13 07:31:46;;;;;;;22.70;21.50;;;;;;;14.79;61.83;99637.34;5116998;27;20035;-72
2023/03/13 07:34:12;;;;;;;23.27;21.88;;;;;;;14.77;62.12;99642.28;5080511;28;20040;-71
2023/03/13 07:36:39;;;;;;;23.60;22.20;;;;;;;14.74;62.26;99640.16;5112739;28;20465;-73
2023/03/13 07:39:04;;;;;;;22.58;21.38;;;;;;;14.80;62.26;99640.88;5075897;28;20396;-71
2023/03/13 07:41:30;;;;;;;24.77;23.10;;;;;;;14.74;62.42;99645.59;5086391;28;20080;-72
2023/03/13 07:43:55;;;;;;;23.80;22.55;;;;;;;14.77;61.99;99650.44;5083237;28;20039;-72
2023/03/13 07:46:21;;;;;;;24.35;22.63;;;;;;;14.75;62.24;99633.59;5086206;28;20294;-72
2023/03/13 07:48:47;;;;;;;23.42;22.05;;;;;;;14.84;61.93;99644.59;5083415;28;20033;-71
2023/03/13 07:51:24;;;;;;;23.77;22.48;;;;;;;14.85;62.14;99629.91;5085965;28;20077;-72
2023/03/13 07:53:50;;;;;;;24.08;22.48;;;;;;;14.85;61.94;99630.72;5088098;28;20092;-73
2023/03/13 07:56:18;;;;;;;22.50;20.88;;;;;;;14.90;62.07;99629.81;5085653;28;20059;-72
2023/03/13 07:58:44;;;;;;;24.50;22.90;;;;;;;14.90;62.17;99622.47;5090591;28;20134;-72
2023/03/13 08:01:24;;;;;;;23.15;21.85;;;;;;;14.92;62.15;99622.97;5084193;28;20036;-73
2023/03/13 08:03:50;;;;;;;24.70;23.20;;;;;;;14.95;61.76;99620.78;5085119;28;20067;-72
2023/03/13 08:06:18;;;;;;;23.85;22.60;;;;;;;14.97;61.89;99627.53;5084722;28;20146;-72
2023/03/13 08:08:44;;;;;;;24.30;22.90;;;;;;;14.95;61.99;99627.00;5079788;28;20578;-72
2023/03/13 08:11:12;;;;;;;23.88;22.58;;;;;;;14.99;61.76;99619.06;5082085;28;20036;-72
2023/03/13 08:13:38;;;;;;;23.17;21.92;;;;;;;14.98;62.04;99623.69;5081257;28;20119;-71
2023/03/13 08:16:13;;;;;;;26.45;24.40;;;;;;;15.01;61.79;99625.00;5083693;28;20028;-72
2023/03/13 08:18:41;;;;;;;23.92;22.48;;;;;;;15.01;61.69;99619.56;5081893;28;20036;-73
2023/03/13 08:21:14;;;;;;;22.02;20.83;;;;;;;14.99;62.14;99625.28;5088217;28;20035;-72
2023/03/13 08:23:41;;;;;;;23.88;22.48;;;;;;;15.00;62.18;99639.72;5082045;28;20028;-72
2023/03/13 08:26:11;;;;;;;23.92;22.33;;;;;;;15.00;62.03;99632.38;5084627;28;20036;-71
2023/03/13 08:28:38;;;;;;;25.95;24.25;;;;;;;15.00;61.89;99626.91;5083429;28;20441;-72
2023/03/13 08:31:11;;;;;;;24.35;22.65;;;;;;;15.01;62.20;99646.75;5098723;28;20032;-73
2023/03/13 08:33:37;;;;;;;24.95;23.23;;;;;;;15.02;62.40;99653.81;5083055;28;20039;-73
2023/03/13 08:36:37;;;;;;;24.48;22.98;;;;;;;14.98;62.00;99645.44;5091605;28;20384;-72
2023/03/13 08:39:05;;;;;;;25.17;23.77;;;;;;;14.99;62.16;99628.00;5086228;28;20028;-73
2023/03/13 08:41:35;;;;;;;25.70;23.95;;;;;;;15.03;62.34;99634.47;5083360;28;20048;-72
2023/03/13 08:44:02;;;;;;;23.75;22.50;;;;;;;15.06;62.08;99631.16;5088533;28;20020;-71
2023/03/13 08:46:29;;;;;;;22.95;21.67;;;;;;;15.11;62.05;99609.31;5084733;28;20061;-73
2023/03/13 08:48:55;;;;;;;24.98;23.08;;;;;;;15.14;62.12;99602.44;5085619;28;20040;-73
2023/03/13 08:51:22;;;;;;;24.20;22.90;;;;;;;15.14;62.16;99594.28;5085352;28;20120;-72
2023/03/13 08:53:48;;;;;;;25.80;24.17;;;;;;;15.14;61.73;99592.41;5083303;28;20032;-73
2023/03/13 08:56:17;;;;;;;24.33;22.83;;;;;;;15.19;61.56;99590.69;5087939;28;20044;-72
2023/03/13 08:58:42;;;;;;;25.33;23.65;;;;;;;15.18;61.94;99589.06;5084085;28;20546;-71
2023/03/13 09:01:13;;;;;;;23.67;22.38;;;;;;;15.15;62.22;99585.84;5080980;28;20629;-71
2023/03/13 09:03:40;;;;;;;26.70;24.88;;;;;;;15.21;62.24;99569.41;5080970;28;20032;-72
2023/03/13 09:06:07;;;;;;;22.77;21.52;;;;;;;15.21;61.77;99578.38;5087648;28;20135;-71
2023/03/13 09:08:33;;;;;;;27.08;25.38;;;;;;;15.20;61.99;99560.47;5098485;28;20036;-72
2023/03/13 09:11:01;;;;;;;24.55;23.05;;;;;;;15.16;62.14;99562.16;5085880;28;20068;-71
2023/03/13 09:13:28;;;;;;;25.65;24.25;;;;;;;15.15;62.36;99546.97;5082723;28;20383;-73
2023/03/13 09:15:59;;;;;;;25.63;23.83;;;;;;;15.19;62.36;99564.28;5102433;28;20158;-73
2023/03/13 09:18:26;;;;;;;26.25;24.73;;;;;;;15.21;62.29;99555.81;5083758;28;20035;-73
2023/03/13 09:20:51;;;;;;;26.75;25.10;;;;;;;15.22;62.09;99555.53;5084618;28;20036;-72
2023/03/13 09:23:18;;;;;;;24.95;23.65;;;;;;;15.24;62.13;99547.84;5082093;28;20396;-73
2023/03/13 09:25:43;;;;;;;26.00;24.45;;;;;;;15.25;62.28;99551.41;5079731;28;20111;-71
2023/03/13 09:28:09;;;;;;;24.90;23.10;;;;;;;15.26;62.31;99558.44;5079780;28;20036;-72
2023/03/13 09:30:34;;;;;;;24.73;23.00;;;;;;;15.26;62.65;99551.06;5079758;28;20509;-72
2023/03/13 09:33:00;;;;;;;24.08;22.77;;;;;;;15.33;62.35;99543.31;5083053;28;20039;-72
2023/03/13 09:35:25;;;;;;;25.88;24.33;;;;;;;15.30;62.37;99548.56;5081122;28;20048;-73
2023/03/13 09:37:50;;;;;;;25.55;24.10;;;;;;;15.33;62.50;99527.00;5084435;28;20038;-71
2023/03/13 09:40:19;;;;;;;24.80;23.10;;;;;;;15.38;62.27;99517.13;5085637;28;20039;-72
2023/03/13 09:42:49;;;;;;;23.73;22.35;;;;;;;15.44;62.30;99515.91;5082902;28;20028;-73
2023/03/13 09:45:32;;;;;;;23.98;22.67;;;;;;;15.39;62.75;99548.66;5087183;28;20054;-71
2023/03/13 09:48:30;;;;;;;24.90;23.50;;;;;;;15.36;62.51;99525.59;5086536;28;20024;-71
2023/03/13 09:51:18;;;;;;;24.13;22.38;;;;;;;15.35;62.95;99515.81;5083294;28;20035;-72
2023/03/13 09:53:52;;;;;;;22.13;20.88;;;;;;;15.41;62.48;99521.94;5085794;28;20028;-72
2023/03/13 09:56:30;;;;;;;25.23;23.58;;;;;;;15.44;62.83;99516.69;5079454;28;20032;-71
2023/03/13 09:59:15;;;;;;;24.75;23.02;;;;;;;15.38;62.98;99517.13;5085376;28;20039;-71
2023/03/13 10:01:42;;;;;;;26.98;25.13;;;;;;;15.39;62.75;99510.56;5080983;28;20028;-73
2023/03/13 10:04:30;;;;;;;23.23;21.95;;;;;;;15.45;62.70;99502.00;5086381;28;20038;-72
2023/03/13 10:06:56;;;;;;;25.75;24.05;;;;;;;15.44;62.49;99499.56;5080384;28;20574;-71
2023/03/13 10:09:29;;;;;;;22.52;21.33;;;;;;;15.51;62.24;99519.81;5084577;28;20450;-72
2023/03/13 10:12:22;;;;;;;25.83;24.15;;;;;;;15.47;62.51;99499.78;5081291;28;20039;-73
2023/03/13 10:14:53;;;;;;;24.30;22.92;;;;;;;15.56;62.48;99514.25;5086080;28;20054;-73
2023/03/13 10:17:36;;;;;;;24.08;22.55;;;;;;;15.44;62.80;99500.38;5084946;28;20058;-73
2023/03/13 10:20:26;;;;;;;26.55;24.92;;;;;;;15.59;62.37;99502.75;5082775;28;20035;-72
2023/03/13 10:23:01;;;;;;;23.80;22.33;;;;;;;15.64;62.08;99501.84;5084651;28;20089;-72
2023/03/13 10:25:31;;;;;;;24.33;23.02;;;;;;;15.63;62.46;99494.00;5083708;28;20036;-71
2023/03/13 10:27:57;;;;;;;25.85;24.25;;;;;;;15.71;61.91;99493.28;5077820;28;20454;-72
2023/03/13 10:30:24;;;;;;;23.92;22.33;;;;;;;15.70;62.10;99486.22;5080471;28;20085;-72
2023/03/13 10:32:52;;;;;;;27.33;25.65;;;;;;;15.71;62.43;99483.19;5087614;28;20036;-71
2023/03/13 10:35:24;;;;;;;23.57;22.37;;;;;;;15.74;62.09;99481.78;5083361;28;20428;-71
2023/03/13 10:37:58;;;;;;;23.38;22.10;;;;;;;15.81;61.89;99475.91;5083749;28;20476;-73
2023/03/13 10:40:26;;;;;;;24.40;23.08;;;;;;;15.85;62.06;99479.63;5083057;28;20032;-72
2023/03/13 10:42:59;;;;;;;25.05;23.65;;;;;;;15.82;62.31;99472.06;5083463;28;20032;-73
2023/03/13 10:45:26;;;;;;;25.92;24.42;;;;;;;15.79;62.41;99478.94;5083886;28;20035;-73
2023/03/13 10:47:58;;;;;;;26.88;25.38;;;;;;;15.84;62.35;99473.38;5078025;28;20120;-73
2023/03/13 10:50:26;;;;;;;25.60;24.20;;;;;;;15.89;62.11;99491.50;5084497;28;20103;-73
2023/03/13 10:52:52;;;;;;;26.13;24.63;;;;;;;15.95;62.14;99477.47;5083334;28;20051;-73
2023/03/13 10:55:21;;;;;;;25.23;23.90;;;;;;;15.94;61.78;99469.59;5085962;28;20521;-71
2023/03/13 10:58:04;;;;;;;24.77;23.48;;;;;;;15.95;62.02;99479.38;5085280;28;20036;-75
2023/03/13 11:00:38;;;;;;;26.00;24.60;;;;;;;15.97;62.22;99466.25;5083294;28;20039;-76
2023/03/13 11:03:06;;;;;;;26.70;25.13;;;;;;;16.01;62.22;99472.69;5083969;28;20039;-75
2023/03/13 11:05:41;;;;;;;28.58;26.88;;;;;;;16.04;61.77;99460.38;5082312;28;20064;-71
2023/03/13 11:08:22;;;;;;;26.30;24.90;;;;;;;16.10;62.05;99470.84;5081685;28;20365;-74
2023/03/13 11:10:54;;;;;;;25.60;24.10;;;;;;;16.12;61.47;99471.31;5080238;28;20064;-73
2023/03/13 11:13:46;;;;;;;24.52;23.25;;;;;;;16.14;61.97;99457.41;5084115;28;20036;-71
2023/03/13 11:16:17;;;;;;;24.65;23.25;;;;;;;16.07;62.05;99443.41;5080665;28;20606;-72
2023/03/13 11:18:54;;;;;;;23.55;22.25;;;;;;;16.10;61.93;99470.03;5087313;28;20084;-72
2023/03/13 11:21:42;;;;;;;25.33;23.92;;;;;;;16.07;62.30;99432.50;5082436;28;20093;-71